PWSweather.com
Personal Weather Stations
Station Observations
SEVNO44
Sevno, PrimskovoSI 1276

SevnoPrimskovoSI 1276

Lat: 45.9796285, Lon: 14.924044999999978

Elevation: 1706.0368

Station Type: WS-2307

Latest ConditionsUpdated 8:50:29 AM GMT+01:01 Thursday, Jul 18, 2019
Currently Today's Max Today's Min Today's Average
Temperature 65.5°F18.6°C 67.6°F19.8°C 60.4°F15.8°C 62.9°F17.2°C
Dew Point 60.2°F15.7°C 60.2°F15.7°C 51.9°F11.1°C 54.6°F12.6°C
Winds 1.3 mph SW2.1 kmh SW 3.9 mph -6.3 kmh - - 1.4 mph 2.3 kmh
Wind Gusts 3.1 mph5.0 kmh 11.0 mph17.7 kmh - -
Humidity 83% 84% 57% 75%
Pressure 29.93 in1013.5 mb 29.93 in1013.5 mb 29.90 in1012.5 mb -
Precipitation - 0.02 in0.5 mm - -
Hour Temp Dew Point Humidity Winds Wind Gusts Pressure Precip Precip Rate Daily Precip Total
08:50 AM 65.5°F18.6°C 60.2°F15.7°C 83% 1.3 mph SW2.1 kmh SW 3.1 mph5.0 kmh 29.93 in1013.5 mb 0.00 in0.0 mm 0.00 in0.0 mm 0.02 in0.5 mm
08:45 AM 65.1°F18.4°C 59.8°F15.4°C 83% 0.7 mph SW1.1 kmh SW 2.5 mph4.0 kmh 29.93 in1013.5 mb 0.00 in0.0 mm 0.00 in0.0 mm 0.02 in0.5 mm
08:40 AM 64.9°F18.3°C 59.7°F15.4°C 83% 0.7 mph WSW1.1 kmh WSW 3.6 mph5.8 kmh 29.92 in1013.2 mb 0.00 in0.0 mm 0.00 in0.0 mm 0.02 in0.5 mm
08:35 AM 64.8°F18.2°C 59.5°F15.3°C 83% 1.0 mph WSW1.6 kmh WSW 3.8 mph6.1 kmh 29.92 in1013.2 mb 0.00 in0.0 mm 0.00 in0.0 mm 0.02 in0.5 mm
08:30 AM 64.6°F18.1°C 59.3°F15.2°C 83% 1.5 mph WSW2.4 kmh WSW 4.7 mph7.6 kmh 29.92 in1013.2 mb 0.00 in0.0 mm 0.00 in0.0 mm 0.02 in0.5 mm
08:25 AM 64.2°F17.9°C 58.9°F14.9°C 83% 1.8 mph W2.9 kmh W 4.7 mph7.6 kmh 29.92 in1013.2 mb 0.00 in0.0 mm 0.00 in0.0 mm 0.02 in0.5 mm
08:20 AM 64.2°F17.9°C 58.9°F14.9°C 83% 1.3 mph W2.1 kmh W 4.7 mph7.6 kmh 29.92 in1013.2 mb 0.00 in0.0 mm 0.00 in0.0 mm 0.02 in0.5 mm
08:15 AM 63.9°F17.7°C 58.6°F14.8°C 83% 0.8 mph WNW1.3 kmh WNW 2.9 mph4.7 kmh 29.92 in1013.2 mb 0.00 in0.0 mm 0.00 in0.0 mm 0.02 in0.5 mm
08:10 AM 63.7°F17.6°C 58.4°F14.7°C 83% 0.6 mph WSW1.0 kmh WSW 2.5 mph4.0 kmh 29.92 in1013.2 mb 0.00 in0.0 mm 0.00 in0.0 mm 0.02 in0.5 mm
08:05 AM 63.3°F17.4°C 58.1°F14.5°C 83% 0.5 mph S0.8 kmh S 2.0 mph3.2 kmh 29.92 in1013.2 mb 0.00 in0.0 mm 0.00 in0.0 mm 0.02 in0.5 mm
08:00 AM 63.1°F17.3°C 57.9°F14.4°C 83% 0.4 mph S0.6 kmh S 2.5 mph4.0 kmh 29.92 in1013.2 mb 0.00 in0.0 mm 0.00 in0.0 mm 0.02 in0.5 mm
07:55 AM 63.0°F17.2°C 57.7°F14.3°C 83% 0.8 mph S1.3 kmh S 2.9 mph4.7 kmh 29.92 in1013.2 mb 0.00 in0.0 mm 0.00 in0.0 mm 0.02 in0.5 mm
07:50 AM 62.8°F17.1°C 57.9°F14.4°C 84% 1.4 mph S2.3 kmh S 3.4 mph5.5 kmh 29.92 in1013.2 mb 0.00 in0.0 mm 0.00 in0.0 mm 0.02 in0.5 mm
07:45 AM 62.4°F16.9°C 57.5°F14.2°C 84% 1.6 mph S2.6 kmh S 3.4 mph5.5 kmh 29.93 in1013.5 mb 0.00 in0.0 mm 0.00 in0.0 mm 0.02 in0.5 mm
07:40 AM 62.4°F16.9°C 57.5°F14.2°C 84% 1.8 mph S2.9 kmh S 3.6 mph5.8 kmh 29.93 in1013.5 mb 0.00 in0.0 mm 0.00 in0.0 mm 0.02 in0.5 mm
07:35 AM 62.2°F16.8°C 57.0°F13.9°C 83% 1.7 mph SW2.7 kmh SW 4.5 mph7.2 kmh 29.93 in1013.5 mb 0.00 in0.0 mm 0.00 in0.0 mm 0.02 in0.5 mm
07:30 AM 62.2°F16.8°C 57.0°F13.9°C 83% 1.4 mph WSW2.3 kmh WSW 4.5 mph7.2 kmh 29.93 in1013.5 mb 0.00 in0.0 mm 0.00 in0.0 mm 0.02 in0.5 mm
07:25 AM 61.9°F16.6°C 56.7°F13.7°C 83% 1.3 mph WSW2.1 kmh WSW 3.4 mph5.5 kmh 29.93 in1013.5 mb 0.00 in0.0 mm 0.00 in0.0 mm 0.02 in0.5 mm
07:20 AM 61.7°F16.5°C 56.5°F13.6°C 83% 1.7 mph WSW2.7 kmh WSW 4.7 mph7.6 kmh 29.93 in1013.5 mb 0.00 in0.0 mm 0.00 in0.0 mm 0.02 in0.5 mm
07:15 AM 61.7°F16.5°C 56.5°F13.6°C 83% 2.8 mph SW4.5 kmh SW 5.6 mph9.0 kmh 29.93 in1013.5 mb 0.00 in0.0 mm 0.00 in0.0 mm 0.02 in0.5 mm
07:10 AM 61.5°F16.4°C 56.3°F13.5°C 83% 2.3 mph SSW3.7 kmh SSW 5.6 mph9.0 kmh 29.93 in1013.5 mb 0.00 in0.0 mm 0.00 in0.0 mm 0.02 in0.5 mm
07:05 AM 61.5°F16.4°C 56.3°F13.5°C 83% 0.9 mph S1.4 kmh S 2.9 mph4.7 kmh 29.93 in1013.5 mb 0.00 in0.0 mm 0.00 in0.0 mm 0.02 in0.5 mm
07:00 AM 61.5°F16.4°C 56.3°F13.5°C 83% 0.5 mph S0.8 kmh S 1.8 mph2.9 kmh 29.92 in1013.2 mb 0.00 in0.0 mm 0.00 in0.0 mm 0.02 in0.5 mm
06:55 AM 61.3°F16.3°C 55.8°F13.2°C 82% 0.3 mph S0.5 kmh S 2.0 mph3.2 kmh 29.92 in1013.2 mb 0.00 in0.0 mm 0.00 in0.0 mm 0.02 in0.5 mm
06:50 AM 61.3°F16.3°C 56.1°F13.4°C 83% 0.7 mph S1.1 kmh S 3.1 mph5.0 kmh 29.92 in1013.2 mb 0.00 in0.0 mm 0.00 in0.0 mm 0.02 in0.5 mm
06:45 AM 61.3°F16.3°C 55.8°F13.2°C 82% 0.9 mph SSW1.4 kmh SSW 3.1 mph5.0 kmh 29.92 in1013.2 mb 0.00 in0.0 mm 0.00 in0.0 mm 0.02 in0.5 mm
06:40 AM 61.2°F16.2°C 55.6°F13.1°C 82% 0.7 mph W1.1 kmh W 4.3 mph6.9 kmh 29.91 in1012.9 mb 0.00 in0.0 mm 0.00 in0.0 mm 0.02 in0.5 mm
06:35 AM 61.0°F16.1°C 55.4°F13.0°C 82% 1.0 mph NW1.6 kmh NW 4.5 mph7.2 kmh 29.91 in1012.9 mb 0.00 in0.0 mm 0.00 in0.0 mm 0.02 in0.5 mm
06:30 AM 61.0°F16.1°C 55.4°F13.0°C 82% 0.9 mph NW1.4 kmh NW 4.5 mph7.2 kmh 29.91 in1012.9 mb 0.00 in0.0 mm 0.00 in0.0 mm 0.02 in0.5 mm
06:25 AM 61.0°F16.1°C 55.1°F12.8°C 81% 0.4 mph NW0.6 kmh NW 2.2 mph3.5 kmh 29.91 in1012.9 mb 0.00 in0.0 mm 0.00 in0.0 mm 0.02 in0.5 mm
06:20 AM 60.6°F15.9°C 54.8°F12.7°C 81% 0.3 mph NW0.5 kmh NW 2.7 mph4.3 kmh 29.91 in1012.9 mb 0.00 in0.0 mm 0.00 in0.0 mm 0.02 in0.5 mm
06:15 AM 60.6°F15.9°C 54.8°F12.7°C 81% 0.5 mph NW0.8 kmh NW 2.7 mph4.3 kmh 29.91 in1012.9 mb 0.00 in0.0 mm 0.00 in0.0 mm 0.02 in0.5 mm
06:10 AM 60.6°F15.9°C 54.8°F12.7°C 81% 0.7 mph NW1.1 kmh NW 4.5 mph7.2 kmh 29.91 in1012.9 mb 0.00 in0.0 mm 0.00 in0.0 mm 0.02 in0.5 mm
06:05 AM 60.6°F15.9°C 54.8°F12.7°C 81% 0.4 mph NNW0.6 kmh NNW 4.5 mph7.2 kmh 29.91 in1012.9 mb 0.00 in0.0 mm 0.00 in0.0 mm 0.02 in0.5 mm
06:00 AM 60.4°F15.8°C 54.2°F12.3°C 80% 0.1 mph N0.2 kmh N 1.3 mph2.1 kmh 29.91 in1012.9 mb 0.00 in0.0 mm 0.00 in0.0 mm 0.02 in0.5 mm
05:55 AM 60.4°F15.8°C 54.2°F12.3°C 80% 0.2 mph NNE0.3 kmh NNE 3.4 mph5.5 kmh 29.91 in1012.9 mb 0.00 in0.0 mm 0.00 in0.0 mm 0.02 in0.5 mm
05:50 AM 60.4°F15.8°C 54.2°F12.3°C 80% 0.5 mph N0.8 kmh N 3.4 mph5.5 kmh 29.91 in1012.9 mb 0.00 in0.0 mm 0.00 in0.0 mm 0.02 in0.5 mm
05:45 AM 60.4°F15.8°C 54.2°F12.3°C 80% 0.7 mph N1.1 kmh N 3.1 mph5.0 kmh 29.91 in1012.9 mb 0.00 in0.0 mm 0.00 in0.0 mm 0.02 in0.5 mm
05:40 AM 60.4°F15.8°C 54.2°F12.3°C 80% 0.6 mph N1.0 kmh N 3.1 mph5.0 kmh 29.91 in1012.9 mb 0.00 in0.0 mm 0.00 in0.0 mm 0.02 in0.5 mm
05:35 AM 60.4°F15.8°C 54.2°F12.3°C 80% 0.2 mph N0.3 kmh N 1.8 mph2.9 kmh 29.91 in1012.9 mb 0.00 in0.0 mm 0.00 in0.0 mm 0.02 in0.5 mm
05:30 AM 60.4°F15.8°C 54.2°F12.3°C 80% 0.1 mph N0.2 kmh N 1.8 mph2.9 kmh 29.91 in1012.9 mb 0.00 in0.0 mm 0.00 in0.0 mm 0.02 in0.5 mm
05:25 AM 60.4°F15.8°C 54.2°F12.3°C 80% 0.3 mph N0.5 kmh N 2.0 mph3.2 kmh 29.91 in1012.9 mb 0.00 in0.0 mm 0.00 in0.0 mm 0.02 in0.5 mm
05:20 AM 60.4°F15.8°C 54.2°F12.3°C 80% 0.7 mph N1.1 kmh N 2.9 mph4.7 kmh 29.91 in1012.9 mb 0.00 in0.0 mm 0.00 in0.0 mm 0.02 in0.5 mm
05:15 AM 60.4°F15.8°C 54.2°F12.3°C 80% 0.9 mph N1.4 kmh N 2.9 mph4.7 kmh 29.91 in1012.9 mb 0.00 in0.0 mm 0.00 in0.0 mm 0.02 in0.5 mm
05:10 AM 60.4°F15.8°C 53.9°F12.2°C 79% 0.8 mph N1.3 kmh N 2.9 mph4.7 kmh 29.91 in1012.9 mb 0.00 in0.0 mm 0.00 in0.0 mm 0.02 in0.5 mm
05:05 AM 60.4°F15.8°C 53.9°F12.2°C 79% 0.7 mph N1.1 kmh N 3.1 mph5.0 kmh 29.91 in1012.9 mb 0.00 in0.0 mm 0.00 in0.0 mm 0.02 in0.5 mm
05:00 AM 60.4°F15.8°C 53.9°F12.2°C 79% 0.4 mph N0.6 kmh N 3.1 mph5.0 kmh 29.91 in1012.9 mb 0.02 in0.5 mm 0.00 in0.0 mm 0.02 in0.5 mm
04:55 AM 60.4°F15.8°C 53.9°F12.2°C 79% 0.2 mph N0.3 kmh N 2.0 mph3.2 kmh 29.91 in1012.9 mb 0.02 in0.5 mm 0.00 in0.0 mm 0.02 in0.5 mm
04:50 AM 60.4°F15.8°C 53.9°F12.2°C 79% 0.2 mph N0.3 kmh N 2.2 mph3.5 kmh 29.91 in1012.9 mb 0.02 in0.5 mm 0.00 in0.0 mm 0.02 in0.5 mm
04:45 AM 60.4°F15.8°C 53.9°F12.2°C 79% 0.4 mph NNW0.6 kmh NNW 2.9 mph4.7 kmh 29.91 in1012.9 mb 0.02 in0.5 mm 0.00 in0.0 mm 0.02 in0.5 mm
04:40 AM 60.6°F15.9°C 54.1°F12.3°C 79% 0.8 mph N1.3 kmh N 3.6 mph5.8 kmh 29.92 in1013.2 mb 0.02 in0.5 mm 0.00 in0.0 mm 0.02 in0.5 mm
04:35 AM 60.6°F15.9°C 54.1°F12.3°C 79% 1.5 mph N2.4 kmh N 3.6 mph5.8 kmh 29.91 in1012.9 mb 0.02 in0.5 mm 0.00 in0.0 mm 0.02 in0.5 mm
04:30 AM 60.6°F15.9°C 54.1°F12.3°C 79% 2.2 mph NW3.5 kmh NW 6.5 mph10.5 kmh 29.91 in1012.9 mb 0.02 in0.5 mm 0.00 in0.0 mm 0.02 in0.5 mm
04:25 AM 60.6°F15.9°C 54.1°F12.3°C 79% 3.1 mph NW5.0 kmh NW 8.7 mph14.0 kmh 29.91 in1012.9 mb 0.02 in0.5 mm 0.00 in0.0 mm 0.02 in0.5 mm
04:20 AM 61.0°F16.1°C 54.4°F12.4°C 79% 3.5 mph NW5.6 kmh NW 8.7 mph14.0 kmh 29.91 in1012.9 mb 0.02 in0.5 mm 0.00 in0.0 mm 0.02 in0.5 mm
04:15 AM 61.0°F16.1°C 54.1°F12.3°C 78% 3.0 mph NW4.8 kmh NW 10.5 mph16.9 kmh 29.91 in1012.9 mb 0.02 in0.5 mm 0.00 in0.0 mm 0.02 in0.5 mm
04:10 AM 61.0°F16.1°C 54.1°F12.3°C 78% 2.5 mph NW4.0 kmh NW 10.5 mph16.9 kmh 29.91 in1012.9 mb 0.02 in0.5 mm 0.00 in0.0 mm 0.02 in0.5 mm
04:05 AM 61.2°F16.2°C 53.9°F12.2°C 77% 1.6 mph NNW2.6 kmh NNW 5.8 mph9.3 kmh 29.91 in1012.9 mb 0.02 in0.5 mm 0.24 in6.1 mm 0.02 in0.5 mm
04:00 AM 61.3°F16.3°C 54.1°F12.3°C 77% 1.6 mph N2.6 kmh N 5.6 mph9.0 kmh 29.91 in1012.9 mb 0.00 in0.0 mm 0.00 in0.0 mm 0.00 in0.0 mm
03:55 AM 61.3°F16.3°C 53.7°F12.1°C 76% 1.5 mph N2.4 kmh N 5.6 mph9.0 kmh 29.91 in1012.9 mb 0.00 in0.0 mm 0.00 in0.0 mm 0.00 in0.0 mm
03:50 AM 61.5°F16.4°C 53.9°F12.2°C 76% 1.3 mph N2.1 kmh N 4.5 mph7.2 kmh 29.91 in1012.9 mb 0.00 in0.0 mm 0.00 in0.0 mm 0.00 in0.0 mm
03:45 AM 61.7°F16.5°C 53.7°F12.1°C 75% 1.8 mph NW2.9 kmh NW 6.5 mph10.5 kmh 29.92 in1013.2 mb 0.00 in0.0 mm 0.00 in0.0 mm 0.00 in0.0 mm
03:40 AM 61.9°F16.6°C 53.9°F12.2°C 75% 1.3 mph NW2.1 kmh NW 6.5 mph10.5 kmh 29.91 in1012.9 mb 0.00 in0.0 mm 0.00 in0.0 mm 0.00 in0.0 mm
03:35 AM 62.1°F16.7°C 53.7°F12.1°C 74% 1.0 mph NW1.6 kmh NW 4.9 mph7.9 kmh 29.92 in1013.2 mb 0.00 in0.0 mm 0.00 in0.0 mm 0.00 in0.0 mm
03:30 AM 62.2°F16.8°C 53.8°F12.1°C 74% 2.2 mph NW3.5 kmh NW 10.5 mph16.9 kmh 29.92 in1013.2 mb 0.00 in0.0 mm 0.00 in0.0 mm 0.00 in0.0 mm
03:25 AM 62.4°F16.9°C 54.0°F12.2°C 74% 3.6 mph NW5.8 kmh NW 10.5 mph16.9 kmh 29.92 in1013.2 mb 0.00 in0.0 mm 0.00 in0.0 mm 0.00 in0.0 mm
03:20 AM 62.4°F16.9°C 53.6°F12.0°C 73% 3.7 mph NW6.0 kmh NW 10.7 mph17.2 kmh 29.92 in1013.2 mb 0.00 in0.0 mm 0.00 in0.0 mm 0.00 in0.0 mm
03:15 AM 62.6°F17.0°C 53.4°F11.9°C 72% 3.9 mph NW6.3 kmh NW 10.7 mph17.2 kmh 29.92 in1013.2 mb 0.00 in0.0 mm 0.00 in0.0 mm 0.00 in0.0 mm
03:10 AM 62.8°F17.1°C 53.6°F12.0°C 72% 2.6 mph WNW4.2 kmh WNW 7.4 mph11.9 kmh 29.92 in1013.2 mb 0.00 in0.0 mm 0.00 in0.0 mm 0.00 in0.0 mm
03:05 AM 63.0°F17.2°C 53.4°F11.9°C 71% 0.8 mph SW1.3 kmh SW 4.0 mph6.4 kmh 29.91 in1012.9 mb 0.00 in0.0 mm 0.00 in0.0 mm 0.00 in0.0 mm
03:00 AM 63.1°F17.3°C 53.6°F12.0°C 71% 1.5 mph S2.4 kmh S 4.7 mph7.6 kmh 29.91 in1012.9 mb 0.00 in0.0 mm 0.00 in0.0 mm 0.00 in0.0 mm
02:55 AM 63.1°F17.3°C 53.2°F11.8°C 70% 1.1 mph S1.8 kmh S 4.7 mph7.6 kmh 29.91 in1012.9 mb 0.00 in0.0 mm 0.00 in0.0 mm 0.00 in0.0 mm
02:50 AM 63.3°F17.4°C 53.4°F11.9°C 70% Calm Calm 0.9 mph1.4 kmh 29.90 in1012.5 mb 0.00 in0.0 mm 0.00 in0.0 mm 0.00 in0.0 mm
02:45 AM 63.3°F17.4°C 53.4°F11.9°C 70% Calm Calm 0.9 mph1.4 kmh 29.91 in1012.9 mb 0.00 in0.0 mm 0.00 in0.0 mm 0.00 in0.0 mm
02:40 AM 63.3°F17.4°C 53.4°F11.9°C 70% 0.1 mph W0.2 kmh W 2.2 mph3.5 kmh 29.91 in1012.9 mb 0.00 in0.0 mm 0.00 in0.0 mm 0.00 in0.0 mm
02:35 AM 63.5°F17.5°C 53.5°F11.9°C 70% 0.6 mph NW1.0 kmh NW 3.1 mph5.0 kmh 29.90 in1012.5 mb 0.00 in0.0 mm 0.00 in0.0 mm 0.00 in0.0 mm
02:30 AM 63.5°F17.5°C 53.5°F11.9°C 70% 1.5 mph NW2.4 kmh NW 6.3 mph10.1 kmh 29.90 in1012.5 mb 0.00 in0.0 mm 0.00 in0.0 mm 0.00 in0.0 mm
02:25 AM 63.7°F17.6°C 53.7°F12.1°C 70% 2.2 mph NW3.5 kmh NW 6.9 mph11.1 kmh 29.90 in1012.5 mb 0.00 in0.0 mm 0.00 in0.0 mm 0.00 in0.0 mm
02:20 AM 63.7°F17.6°C 53.7°F12.1°C 70% 3.1 mph NW5.0 kmh NW 7.6 mph12.2 kmh 29.91 in1012.9 mb 0.00 in0.0 mm 0.00 in0.0 mm 0.00 in0.0 mm
02:15 AM 64.0°F17.8°C 53.7°F12.1°C 69% 3.9 mph WNW6.3 kmh WNW 9.2 mph14.8 kmh 29.91 in1012.9 mb 0.00 in0.0 mm 0.00 in0.0 mm 0.00 in0.0 mm
02:10 AM 64.0°F17.8°C 53.7°F12.1°C 69% 3.2 mph NW5.1 kmh NW 9.2 mph14.8 kmh 29.91 in1012.9 mb 0.00 in0.0 mm 0.00 in0.0 mm 0.00 in0.0 mm
02:05 AM 64.0°F17.8°C 53.3°F11.8°C 68% 2.2 mph NW3.5 kmh NW 6.2 mph10.0 kmh 29.91 in1012.9 mb 0.00 in0.0 mm 0.00 in0.0 mm 0.00 in0.0 mm
02:00 AM 64.2°F17.9°C 53.4°F11.9°C 68% 3.3 mph NW5.3 kmh NW 8.5 mph13.7 kmh 29.91 in1012.9 mb 0.00 in0.0 mm 0.00 in0.0 mm 0.00 in0.0 mm
01:55 AM 64.2°F17.9°C 53.4°F11.9°C 68% 3.3 mph NW5.3 kmh NW 8.1 mph13.0 kmh 29.91 in1012.9 mb 0.00 in0.0 mm 0.00 in0.0 mm 0.00 in0.0 mm
01:50 AM 64.4°F18.0°C 53.2°F11.8°C 67% 2.9 mph NW4.7 kmh NW 8.1 mph13.0 kmh 29.91 in1012.9 mb 0.00 in0.0 mm 0.00 in0.0 mm 0.00 in0.0 mm
01:45 AM 64.6°F18.1°C 53.4°F11.9°C 67% 3.2 mph NW5.1 kmh NW 9.8 mph15.8 kmh 29.92 in1013.2 mb 0.00 in0.0 mm 0.00 in0.0 mm 0.00 in0.0 mm
01:40 AM 64.6°F18.1°C 53.0°F11.7°C 66% 3.6 mph NW5.8 kmh NW 10.7 mph17.2 kmh 29.92 in1013.2 mb 0.00 in0.0 mm 0.00 in0.0 mm 0.00 in0.0 mm
01:35 AM 64.8°F18.2°C 53.1°F11.7°C 66% 2.7 mph NW4.3 kmh NW 10.7 mph17.2 kmh 29.92 in1013.2 mb 0.00 in0.0 mm 0.00 in0.0 mm 0.00 in0.0 mm
01:30 AM 64.9°F18.3°C 52.9°F11.6°C 65% 2.0 mph NW3.2 kmh NW 9.6 mph15.4 kmh 29.92 in1013.2 mb 0.00 in0.0 mm 0.00 in0.0 mm 0.00 in0.0 mm
01:25 AM 65.1°F18.4°C 52.6°F11.4°C 64% 2.0 mph NNW3.2 kmh NNW 9.6 mph15.4 kmh 29.92 in1013.2 mb 0.00 in0.0 mm 0.00 in0.0 mm 0.00 in0.0 mm
01:20 AM 65.1°F18.4°C 52.6°F11.4°C 64% 2.2 mph NNW3.5 kmh NNW 8.5 mph13.7 kmh 29.92 in1013.2 mb 0.00 in0.0 mm 0.00 in0.0 mm 0.00 in0.0 mm
01:15 AM 65.3°F18.5°C 52.8°F11.6°C 64% 3.2 mph NW5.1 kmh NW 7.6 mph12.2 kmh 29.92 in1013.2 mb 0.00 in0.0 mm 0.00 in0.0 mm 0.00 in0.0 mm
01:10 AM 65.5°F18.6°C 52.5°F11.4°C 63% 3.7 mph NW6.0 kmh NW 11.0 mph17.7 kmh 29.92 in1013.2 mb 0.00 in0.0 mm 0.00 in0.0 mm 0.00 in0.0 mm
01:05 AM 65.5°F18.6°C 52.1°F11.2°C 62% 3.1 mph NW5.0 kmh NW 11.0 mph17.7 kmh 29.92 in1013.2 mb 0.00 in0.0 mm 0.00 in0.0 mm 0.00 in0.0 mm
01:00 AM 65.7°F18.7°C 52.3°F11.3°C 62% 2.2 mph NW3.5 kmh NW 7.4 mph11.9 kmh 29.91 in1012.9 mb 0.00 in0.0 mm 0.00 in0.0 mm 0.00 in0.0 mm
12:55 AM 65.8°F18.8°C 52.0°F11.1°C 61% 1.0 mph WNW1.6 kmh WNW 7.4 mph11.9 kmh 29.91 in1012.9 mb 0.00 in0.0 mm 0.00 in0.0 mm 0.00 in0.0 mm
12:50 AM 66.0°F18.9°C 52.2°F11.2°C 61% 0.3 mph NW0.5 kmh NW 2.5 mph4.0 kmh 29.91 in1012.9 mb 0.00 in0.0 mm 0.00 in0.0 mm 0.00 in0.0 mm
12:45 AM 66.2°F19.0°C 52.3°F11.3°C 61% 0.2 mph NNE0.3 kmh NNE 2.2 mph3.5 kmh 29.91 in1012.9 mb 0.00 in0.0 mm 0.00 in0.0 mm 0.00 in0.0 mm
12:40 AM 66.4°F19.1°C 52.1°F11.2°C 60% 0.4 mph N0.6 kmh N 2.5 mph4.0 kmh 29.91 in1012.9 mb 0.00 in0.0 mm 0.00 in0.0 mm 0.00 in0.0 mm
12:35 AM 66.6°F19.2°C 52.2°F11.2°C 60% 0.5 mph NNE0.8 kmh NNE 2.5 mph4.0 kmh 29.91 in1012.9 mb 0.00 in0.0 mm 0.00 in0.0 mm 0.00 in0.0 mm
12:30 AM 66.7°F19.3°C 52.4°F11.3°C 60% 0.5 mph NNE0.8 kmh NNE 3.6 mph5.8 kmh 29.91 in1012.9 mb 0.00 in0.0 mm 0.00 in0.0 mm 0.00 in0.0 mm
12:25 AM 66.9°F19.4°C 52.1°F11.2°C 59% 0.6 mph N1.0 kmh N 3.6 mph5.8 kmh 29.91 in1012.9 mb 0.00 in0.0 mm 0.00 in0.0 mm 0.00 in0.0 mm
12:20 AM 66.9°F19.4°C 52.1°F11.2°C 59% 0.8 mph NNW1.3 kmh NNW 5.1 mph8.2 kmh 29.91 in1012.9 mb 0.00 in0.0 mm 0.00 in0.0 mm 0.00 in0.0 mm
12:15 AM 67.3°F19.6°C 52.0°F11.1°C 58% 1.4 mph NW2.3 kmh NW 5.1 mph8.2 kmh 29.91 in1012.9 mb 0.00 in0.0 mm 0.00 in0.0 mm 0.00 in0.0 mm
12:10 AM 67.3°F19.6°C 52.0°F11.1°C 58% 1.0 mph NW1.6 kmh NW 4.7 mph7.6 kmh 29.92 in1013.2 mb 0.00 in0.0 mm 0.00 in0.0 mm 0.00 in0.0 mm
12:05 AM 67.6°F19.8°C 51.9°F11.1°C 57% 1.0 mph WNW1.6 kmh WNW 6.3 mph10.1 kmh 29.92 in1013.2 mb 0.00 in0.0 mm 0.00 in0.0 mm 0.00 in0.0 mm
12:00 AM 67.6°F19.8°C 51.9°F11.1°C 57% 1.4 mph WNW2.3 kmh WNW 6.3 mph10.1 kmh 29.92 in1013.2 mb 0.00 in0.0 mm 0.00 in0.0 mm 0.00 in0.0 mm